Time;durP1;ratioP1;P1;durP2;ratioP2;P2;SDS_P1;SDS_P2;PMS_P1;PMS_P2;Temp;Humidity;BMP_temperature;BMP_pressure;BME280_temperature;BME280_humidity;BME280_pressure;Samples;Min_cycle;Max_cycle;Signal;HPM_P1;HPM_P2
2024/03/16 00:00:09;;;;;;;4.10;3.78;;;;;;;10.87;55.60;99943.09;4464488;31;33892;-83
2024/03/16 00:02:38;;;;;;;10.73;2.50;;;;;;;10.80;56.04;99936.34;4476445;31;34200;-83
2024/03/16 00:05:06;;;;;;;3.87;1.83;;;;;;;10.82;55.79;99934.47;4468164;31;32742;-83
2024/03/16 00:07:34;;;;;;;4.47;2.17;;;;;;;10.88;55.36;99933.37;4483520;31;34131;-83
2024/03/16 00:10:02;;;;;;;4.15;2.47;;;;;;;10.75;55.71;99936.53;4479622;31;33542;-82
2024/03/16 00:12:30;;;;;;;6.05;3.10;;;;;;;10.64;55.90;99933.50;4486560;31;34983;-83
2024/03/16 00:14:58;;;;;;;1.95;1.80;;;;;;;10.49;56.36;99932.34;4467898;31;33456;-82
2024/03/16 00:17:27;;;;;;;3.20;2.67;;;;;;;10.34;56.81;99927.69;4492983;31;33019;-82
2024/03/16 00:19:55;;;;;;;2.42;1.45;;;;;;;10.47;56.40;99923.63;4471155;31;32681;-82
2024/03/16 00:22:22;;;;;;;3.20;1.87;;;;;;;10.59;56.27;99926.69;4468193;31;33817;-82
2024/03/16 00:24:50;;;;;;;1.62;1.52;;;;;;;10.62;56.16;99913.34;4483982;31;34498;-82
2024/03/16 00:27:18;;;;;;;4.55;3.12;;;;;;;10.57;56.08;99928.53;4490557;31;33333;-82
2024/03/16 00:29:45;;;;;;;2.65;2.47;;;;;;;10.75;55.72;99928.59;4465386;31;32966;-82
2024/03/16 00:32:13;;;;;;;2.75;2.55;;;;;;;10.95;54.69;99934.81;4474002;31;34146;-82
2024/03/16 00:34:41;;;;;;;2.67;1.80;;;;;;;10.52;56.08;99924.28;4492072;31;33332;-82
2024/03/16 00:37:09;;;;;;;1.20;1.20;;;;;;;10.48;56.57;99924.47;4476984;31;34120;-82
2024/03/16 00:39:37;;;;;;;7.62;2.75;;;;;;;10.54;56.35;99920.72;4460515;31;32741;-81
2024/03/16 00:42:04;;;;;;;5.35;1.73;;;;;;;10.54;56.34;99926.00;4475665;31;32572;-82
2024/03/16 00:44:32;;;;;;;4.20;3.00;;;;;;;10.49;56.75;99924.44;4467616;31;33416;-82
2024/03/16 00:47:00;;;;;;;2.53;2.37;;;;;;;10.41;57.10;99928.31;4470865;31;33411;-83
2024/03/16 00:49:28;;;;;;;2.08;1.98;;;;;;;10.38;57.37;99924.00;4472526;31;33333;-82
2024/03/16 00:51:57;;;;;;;2.70;1.00;;;;;;;10.42;57.26;99920.31;4487383;31;33792;-82
2024/03/16 00:54:25;;;;;;;3.67;3.35;;;;;;;10.46;57.38;99910.50;4468135;31;33418;-82
2024/03/16 00:56:53;;;;;;;1.23;1.17;;;;;;;10.53;57.28;99906.66;4472531;31;31894;-82
2024/03/16 00:59:21;;;;;;;1.73;1.62;;;;;;;10.51;56.96;99906.75;4468025;31;33672;-82
2024/03/16 01:01:48;;;;;;;4.28;2.37;;;;;;;10.36;57.65;99912.66;4474235;31;33750;-82
2024/03/16 01:04:16;;;;;;;3.67;2.58;;;;;;;10.43;57.24;99918.53;4485398;31;33794;-82
2024/03/16 01:06:44;;;;;;;1.85;1.52;;;;;;;10.65;56.37;99914.09;4473230;31;32613;-83
2024/03/16 01:09:16;;;;;;;1.92;1.80;;;;;;;10.46;57.12;99907.84;4485760;31;33473;-83
2024/03/16 01:11:43;;;;;;;1.37;1.30;;;;;;;10.44;57.36;99907.03;4469218;31;34048;-82
2024/03/16 01:14:11;;;;;;;1.48;1.37;;;;;;;10.46;57.43;99907.84;4472927;31;33996;-84
2024/03/16 01:16:39;;;;;;;1.40;1.30;;;;;;;10.48;57.38;99912.13;4475172;31;33587;-84
2024/03/16 01:19:07;;;;;;;3.05;1.80;;;;;;;10.50;57.49;99912.09;4470362;31;34088;-84
2024/03/16 01:21:35;;;;;;;6.32;2.75;;;;;;;10.72;56.59;99912.03;4485947;31;32954;-84
2024/03/16 01:24:03;;;;;;;2.35;1.10;;;;;;;10.54;57.32;99912.78;4465660;31;33963;-84
2024/03/16 01:26:30;;;;;;;3.62;3.28;;;;;;;10.59;57.24;99906.44;4478432;31;32286;-84
2024/03/16 01:29:00;;;;;;;3.70;2.35;;;;;;;10.63;57.12;99901.84;4473044;31;34399;-84
2024/03/16 01:31:29;;;;;;;2.40;2.05;;;;;;;10.63;57.26;99901.84;4470436;31;33915;-83
2024/03/16 01:33:57;;;;;;;1.85;1.55;;;;;;;10.50;57.38;99905.03;4472349;31;33492;-83
2024/03/16 01:36:25;;;;;;;4.28;1.85;;;;;;;10.60;57.34;99904.63;4475880;31;33269;-83
2024/03/16 01:38:52;;;;;;;4.35;2.67;;;;;;;10.58;57.42;99893.28;4471405;31;33917;-82
2024/03/16 01:41:23;;;;;;;5.95;2.65;;;;;;;10.54;57.50;99896.97;4485099;31;33926;-82
2024/03/16 01:43:51;;;;;;;1.00;1.00;;;;;;;10.63;57.15;99908.00;4469814;31;32710;-82
2024/03/16 01:46:18;;;;;;;2.45;2.20;;;;;;;10.83;56.21;99907.16;4467708;31;32427;-83
2024/03/16 01:48:51;;;;;;;5.65;2.72;;;;;;;10.63;56.63;99901.84;4477871;31;32710;-84
2024/03/16 01:51:19;;;;;;;1.30;1.25;;;;;;;10.57;57.29;99908.25;4487043;31;34344;-84
2024/03/16 01:53:48;;;;;;;2.42;1.60;;;;;;;10.60;56.95;99899.38;4466689;31;32323;-87
2024/03/16 01:56:15;;;;;;;2.37;2.17;;;;;;;10.64;56.87;99898.31;4459408;31;32385;-83
2024/03/16 01:58:45;;;;;;;2.05;1.85;;;;;;;10.61;57.11;99893.16;4487314;31;33522;-84
2024/03/16 02:01:13;;;;;;;4.65;2.45;;;;;;;10.84;56.14;99892.16;4473238;31;34591;-84
2024/03/16 02:03:42;;;;;;;3.40;2.05;;;;;;;11.12;55.50;99900.59;4455151;31;33728;-84
2024/03/16 02:06:10;;;;;;;1.85;1.75;;;;;;;10.92;56.06;99898.84;4484251;31;34086;-84
2024/03/16 02:08:38;;;;;;;3.28;2.92;;;;;;;10.78;56.44;99901.22;4473455;31;34667;-84
2024/03/16 02:11:06;;;;;;;2.58;2.45;;;;;;;10.79;56.93;99902.94;4483791;31;33236;-84
2024/03/16 02:13:33;;;;;;;1.52;1.40;;;;;;;10.31;58.17;99893.50;4464381;31;32793;-84
2024/03/16 02:16:02;;;;;;;1.52;1.45;;;;;;;10.29;58.47;99892.69;4459015;31;32163;-84
2024/03/16 02:18:30;;;;;;;1.75;1.37;;;;;;;10.27;59.14;99894.56;4483375;31;33913;-84
2024/03/16 02:20:57;;;;;;;0.82;0.82;;;;;;;10.31;59.45;99895.28;4469505;31;32659;-84
2024/03/16 02:23:25;;;;;;;8.32;3.35;;;;;;;10.76;57.50;99903.06;4485241;31;33753;-83
2024/03/16 02:25:53;;;;;;;1.85;1.48;;;;;;;10.84;57.17;99906.22;4459131;31;31896;-83
2024/03/16 02:28:21;;;;;;;2.50;1.20;;;;;;;10.84;57.32;99906.22;4469110;31;33481;-83
2024/03/16 02:30:48;;;;;;;2.20;1.50;;;;;;;10.58;58.09;99904.69;4470035;31;34775;-83
2024/03/16 02:33:16;;;;;;;1.33;1.25;;;;;;;10.48;58.43;99908.63;4461604;31;32652;-83
2024/03/16 02:35:44;;;;;;;3.58;1.75;;;;;;;10.53;58.47;99911.94;4463264;31;32366;-83
2024/03/16 02:38:12;;;;;;;2.62;2.53;;;;;;;10.54;58.68;99903.13;4468515;31;34235;-83
2024/03/16 02:40:42;;;;;;;1.62;1.52;;;;;;;10.81;57.78;99901.06;4471650;31;33436;-82
2024/03/16 02:43:09;;;;;;;2.62;2.42;;;;;;;10.70;58.18;99908.59;4469683;31;33467;-83
2024/03/16 02:45:37;;;;;;;1.83;1.73;;;;;;;10.58;58.73;99914.38;4482223;31;33669;-83
2024/03/16 02:48:05;;;;;;;2.80;2.50;;;;;;;10.64;58.58;99903.59;4469219;31;34670;-84
2024/03/16 02:50:33;;;;;;;4.35;2.65;;;;;;;10.64;58.63;99906.22;4470625;31;34665;-82
2024/03/16 02:53:01;;;;;;;2.92;1.37;;;;;;;10.65;58.68;99915.88;4484222;31;32155;-83
2024/03/16 02:55:29;;;;;;;1.05;1.05;;;;;;;11.23;56.44;99908.06;4470107;31;34040;-82
2024/03/16 02:57:57;;;;;;;1.75;1.65;;;;;;;11.31;56.37;99910.37;4477416;31;34294;-82
2024/03/16 03:00:26;;;;;;;5.05;3.30;;;;;;;11.25;56.66;99922.03;4487206;31;33709;-83
2024/03/16 03:02:55;;;;;;;0.30;0.30;;;;;;;10.97;57.36;99922.44;4469339;31;34201;-83
2024/03/16 03:05:24;;;;;;;1.90;1.67;;;;;;;10.85;58.38;99923.78;4464464;31;34266;-83
2024/03/16 03:07:52;;;;;;;1.80;1.65;;;;;;;10.94;58.06;99928.69;4471832;31;33189;-83
2024/03/16 03:10:21;;;;;;;2.05;1.95;;;;;;;10.89;58.91;99919.25;4470461;31;32373;-82
2024/03/16 03:12:49;;;;;;;2.47;2.28;;;;;;;11.21;57.60;99920.50;4470968;31;33669;-82
2024/03/16 03:15:18;;;;;;;2.75;2.55;;;;;;;11.43;57.18;99926.50;4472623;31;32690;-82
2024/03/16 03:17:46;;;;;;;6.12;3.85;;;;;;;11.49;57.29;99920.09;4462520;31;32668;-85
2024/03/16 03:20:14;;;;;;;5.32;1.98;;;;;;;11.15;58.31;99926.03;4464223;31;34557;-87
2024/03/16 03:22:42;;;;;;;2.80;2.35;;;;;;;10.88;59.40;99936.03;4472424;31;33012;-87
2024/03/16 03:25:10;;;;;;;2.65;1.75;;;;;;;10.82;60.15;99926.56;4486257;31;31903;-87
2024/03/16 03:27:38;;;;;;;2.15;0.85;;;;;;;10.83;60.54;99925.66;4464614;31;32839;-83
2024/03/16 03:30:06;;;;;;;2.50;2.17;;;;;;;11.02;59.69;99923.94;4490972;31;33742;-83
2024/03/16 03:32:34;;;;;;;1.05;0.85;;;;;;;11.01;59.80;99924.87;4458160;31;32490;-84
2024/03/16 03:35:01;;;;;;;3.70;2.12;;;;;;;10.80;60.88;99909.94;4469865;31;33058;-83
2024/03/16 03:37:29;;;;;;;2.87;2.20;;;;;;;10.67;62.75;99899.00;4470250;31;32291;-83
2024/03/16 03:39:57;;;;;;;3.50;3.20;;;;;;;10.60;63.27;99891.44;4477835;31;33935;-83
2024/03/16 03:42:25;;;;;;;1.90;1.75;;;;;;;10.69;63.62;99898.97;4472669;31;33440;-84
2024/03/16 03:45:54;;;;;;;2.30;2.20;;;;;;;10.89;62.32;99898.12;4464437;31;32175;-83
2024/03/16 03:48:14;;;;;;;1.62;1.42;;;;;;;11.00;62.06;99896.69;4465590;31;33138;-83
2024/03/16 03:50:43;;;;;;;1.17;1.05;;;;;;;11.40;61.19;99907.31;4485618;31;33665;-83
2024/03/16 03:53:10;;;;;;;6.62;2.78;;;;;;;11.11;61.97;99908.56;4470499;31;33757;-83
2024/03/16 03:55:38;;;;;;;3.37;2.78;;;;;;;11.25;61.99;99916.75;4485096;31;33719;-83
2024/03/16 03:58:06;;;;;;;3.80;2.40;;;;;;;11.11;62.15;99916.50;4467356;31;34151;-83
2024/03/16 04:00:34;;;;;;;4.05;2.00;;;;;;;11.27;62.00;99917.56;4482483;31;34014;-85
2024/03/16 04:03:06;;;;;;;2.10;1.95;;;;;;;11.13;62.22;99926.09;4468755;31;33982;-85
2024/03/16 04:05:34;;;;;;;2.50;2.17;;;;;;;10.99;62.83;99929.34;4468883;31;33115;-85
2024/03/16 04:08:04;;;;;;;2.87;2.67;;;;;;;10.83;63.37;99930.09;4472944;31;33605;-82
2024/03/16 04:10:34;;;;;;;2.42;1.92;;;;;;;10.65;64.70;99929.06;4477225;31;33339;-82
2024/03/16 04:13:02;;;;;;;1.40;1.23;;;;;;;10.75;64.68;99927.75;4483700;31;32848;-82
2024/03/16 04:15:30;;;;;;;2.22;2.08;;;;;;;10.82;64.59;99926.56;4474199;31;33025;-82
2024/03/16 04:17:58;;;;;;;1.58;1.48;;;;;;;10.82;64.58;99928.34;4483906;31;32726;-83
2024/03/16 04:20:26;;;;;;;4.18;3.78;;;;;;;10.98;64.05;99930.28;4461619;31;33734;-82
2024/03/16 04:22:54;;;;;;;4.80;3.00;;;;;;;11.01;63.99;99929.25;4485304;31;34478;-85
2024/03/16 04:25:22;;;;;;;2.37;2.28;;;;;;;10.90;64.44;99937.66;4457420;31;35231;-84
2024/03/16 04:27:50;;;;;;;1.45;1.37;;;;;;;10.80;64.57;99940.78;4469395;31;32881;-85
2024/03/16 04:30:17;;;;;;;2.15;2.05;;;;;;;10.76;64.96;99940.03;4466853;31;33375;-84
2024/03/16 04:32:45;;;;;;;3.90;2.05;;;;;;;10.71;65.22;99937.59;4470136;31;33873;-83
2024/03/16 04:35:13;;;;;;;2.08;1.65;;;;;;;10.92;64.93;99941.13;4472772;31;33654;-83
2024/03/16 04:37:41;;;;;;;2.03;1.90;;;;;;;10.83;65.13;99936.22;4487590;31;33651;-84
2024/03/16 04:40:10;;;;;;;0.98;0.98;;;;;;;11.03;64.99;99941.50;4472637;31;33477;-84
2024/03/16 04:42:38;;;;;;;2.15;1.95;;;;;;;11.06;64.96;99942.28;4464891;31;33026;-83
2024/03/16 04:45:07;;;;;;;3.05;1.42;;;;;;;11.05;64.81;99944.06;4462709;31;32910;-83
2024/03/16 04:47:35;;;;;;;1.58;1.48;;;;;;;10.90;65.44;99942.94;4476567;31;33802;-83
2024/03/16 04:50:03;;;;;;;3.25;3.03;;;;;;;11.06;65.08;99940.50;4472274;31;33521;-83
2024/03/16 04:52:31;;;;;;;3.47;1.73;;;;;;;11.06;65.38;99942.28;4471518;31;31590;-83
2024/03/16 04:54:59;;;;;;;1.20;1.20;;;;;;;10.97;65.58;99939.13;4484827;31;33558;-83
2024/03/16 04:57:27;;;;;;;1.48;1.37;;;;;;;10.97;65.73;99936.50;4467553;31;34488;-86
2024/03/16 04:59:55;;;;;;;1.23;1.23;;;;;;;11.03;65.37;99933.56;4474621;31;32929;-85
2024/03/16 05:02:23;;;;;;;1.48;1.37;;;;;;;11.02;65.82;99938.94;4460642;31;32730;-86
2024/03/16 05:04:51;;;;;;;2.87;2.22;;;;;;;10.98;66.27;99937.34;4471195;31;32168;-85
2024/03/16 05:07:20;;;;;;;0.82;0.70;;;;;;;11.13;65.75;99930.53;4461660;31;33784;-85
2024/03/16 05:09:49;;;;;;;3.28;2.33;;;;;;;11.25;64.64;99933.50;4474402;31;33811;-83
2024/03/16 05:12:18;;;;;;;1.55;1.35;;;;;;;11.31;64.88;99932.37;4474817;31;33534;-84
2024/03/16 05:14:46;;;;;;;9.05;2.87;;;;;;;11.33;64.98;99934.94;4480168;31;32168;-83
2024/03/16 05:17:14;;;;;;;2.62;2.42;;;;;;;11.27;65.20;99933.41;4465582;31;32567;-84
2024/03/16 05:19:41;;;;;;;1.62;1.52;;;;;;;11.11;65.93;99935.00;4477711;31;33671;-84
2024/03/16 05:22:09;;;;;;;2.70;2.50;;;;;;;11.34;65.21;99934.84;4469214;31;34056;-84
2024/03/16 05:24:37;;;;;;;5.22;1.92;;;;;;;11.40;65.17;99933.75;4481110;31;33232;-84
2024/03/16 05:27:06;;;;;;;2.47;1.70;;;;;;;11.37;65.40;99945.31;4470345;31;33085;-84
2024/03/16 05:29:37;;;;;;;1.73;1.62;;;;;;;11.47;65.12;99937.81;4470811;31;33264;-84
2024/03/16 05:32:05;;;;;;;7.75;3.03;;;;;;;11.93;63.17;99938.38;4471979;31;33635;-84
2024/03/16 05:34:33;;;;;;;2.30;1.08;;;;;;;11.76;63.01;99937.34;4483673;31;34173;-85
2024/03/16 05:37:01;;;;;;;7.12;3.40;;;;;;;11.57;64.14;99922.38;4456532;31;32701;-85
2024/03/16 05:39:29;;;;;;;2.17;2.08;;;;;;;11.33;65.16;99917.28;4487417;31;34153;-85
2024/03/16 05:41:56;;;;;;;4.18;3.80;;;;;;;11.30;65.72;99930.66;4486237;31;32869;-85
2024/03/16 05:44:25;;;;;;;1.60;1.50;;;;;;;12.06;63.12;99921.00;4477120;31;34105;-85
2024/03/16 05:46:53;;;;;;;3.40;1.17;;;;;;;11.63;63.95;99916.81;4471691;31;33048;-85
2024/03/16 05:49:20;;;;;;;1.45;1.27;;;;;;;11.53;64.38;99922.50;4470493;31;33866;-84
2024/03/16 05:51:51;;;;;;;1.87;1.77;;;;;;;11.31;65.36;99921.78;4461305;31;32968;-84
2024/03/16 05:54:19;;;;;;;2.70;1.87;;;;;;;11.57;65.09;99917.09;4472167;31;33279;-84
2024/03/16 05:56:48;;;;;;;1.12;1.12;;;;;;;11.78;64.24;99927.56;4467484;31;33475;-84
2024/03/16 05:59:15;;;;;;;4.20;2.75;;;;;;;11.67;64.76;99921.03;4472420;31;33930;-85
2024/03/16 06:01:45;;;;;;;2.20;1.75;;;;;;;11.58;64.39;99921.44;4474942;31;32903;-85
2024/03/16 06:04:15;;;;;;;1.80;1.62;;;;;;;11.43;65.51;99930.94;4459086;31;32445;-84
2024/03/16 06:06:43;;;;;;;2.42;2.25;;;;;;;11.35;65.64;99933.09;4466085;31;32620;-85
2024/03/16 06:09:11;;;;;;;0.55;0.55;;;;;;;11.41;66.47;99927.53;4469640;31;33484;-85
2024/03/16 06:11:40;;;;;;;2.22;1.62;;;;;;;11.40;66.22;99937.25;4475066;31;32985;-85
2024/03/16 06:14:10;;;;;;;4.87;1.70;;;;;;;11.43;66.30;99931.78;4476458;31;33787;-83
2024/03/16 06:16:39;;;;;;;3.58;2.20;;;;;;;11.49;66.56;99938.63;4467933;31;33733;-84
2024/03/16 06:19:07;;;;;;;2.00;1.40;;;;;;;11.53;66.33;99934.88;4475424;31;34800;-84
2024/03/16 06:21:35;;;;;;;2.78;2.58;;;;;;;11.67;66.05;99937.75;4476752;31;33555;-83
2024/03/16 06:24:03;;;;;;;2.42;2.33;;;;;;;11.66;66.46;99938.69;4457180;31;31845;-84
2024/03/16 06:26:36;;;;;;;3.78;3.45;;;;;;;12.09;64.77;99930.56;4484492;31;34745;-85
2024/03/16 06:29:08;;;;;;;1.85;1.75;;;;;;;11.96;64.60;99939.09;4484642;31;33708;-85
2024/03/16 06:31:38;;;;;;;3.60;3.28;;;;;;;11.90;65.36;99951.75;4468431;31;34509;-83
2024/03/16 06:34:06;;;;;;;1.48;1.37;;;;;;;12.21;64.52;99945.88;4476218;31;33515;-83
2024/03/16 06:36:35;;;;;;;1.80;1.70;;;;;;;12.40;63.70;99941.41;4474177;31;33815;-84
2024/03/16 06:39:10;;;;;;;5.28;2.90;;;;;;;12.47;63.21;99941.94;4476989;31;33778;-84
2024/03/16 06:41:38;;;;;;;2.15;2.05;;;;;;;12.35;63.62;99948.72;4475513;31;33775;-85
2024/03/16 06:44:06;;;;;;;7.32;3.70;;;;;;;12.10;64.48;99964.03;4459013;31;32651;-85
2024/03/16 06:46:34;;;;;;;5.62;2.58;;;;;;;12.05;64.83;99957.16;4468496;31;34003;-85
2024/03/16 06:49:05;;;;;;;6.53;3.12;;;;;;;11.92;65.26;99966.62;4472815;31;32790;-85
2024/03/16 06:51:34;;;;;;;3.00;2.33;;;;;;;11.92;65.55;99971.94;4486183;31;32550;-85
2024/03/16 06:54:05;;;;;;;9.00;2.15;;;;;;;12.05;65.48;99974.84;4473009;31;32413;-85
2024/03/16 06:56:33;;;;;;;3.15;2.90;;;;;;;12.06;65.30;99984.53;4473525;31;32763;-85
2024/03/16 06:59:01;;;;;;;1.83;1.70;;;;;;;12.46;63.88;99978.16;4485265;31;32765;-84
2024/03/16 07:01:29;;;;;;;16.80;2.10;;;;;;;12.54;63.23;99983.97;4463747;31;33009;-85
2024/03/16 07:03:56;;;;;;;7.68;3.37;;;;;;;12.34;63.85;99983.19;4467330;31;32575;-84
2024/03/16 07:06:25;;;;;;;2.30;2.12;;;;;;;12.37;63.80;99991.84;4469265;31;32889;-83
2024/03/16 07:08:53;;;;;;;1.70;1.60;;;;;;;12.28;64.21;99994.94;4471762;31;33050;-84
2024/03/16 07:11:20;;;;;;;1.52;1.23;;;;;;;12.25;64.54;99992.44;4478562;31;33357;-83
2024/03/16 07:13:48;;;;;;;4.93;3.47;;;;;;;12.39;64.18;99992.66;4481412;31;33116;-83
2024/03/16 07:16:16;;;;;;;7.85;4.97;;;;;;;12.54;63.87;99991.91;4473185;31;33819;-83
2024/03/16 07:18:44;;;;;;;3.47;2.67;;;;;;;12.90;62.32;99998.09;4470441;31;34025;-84
2024/03/16 07:21:15;;;;;;;4.03;3.42;;;;;;;13.16;61.09;100004.75;4491340;31;33832;-84
2024/03/16 07:23:43;;;;;;;3.25;2.70;;;;;;;12.98;60.99;100007.38;4465712;31;33054;-84
2024/03/16 07:26:11;;;;;;;2.22;2.05;;;;;;;12.94;61.74;100008.47;4458053;31;32825;-83
2024/03/16 07:28:39;;;;;;;2.92;2.55;;;;;;;12.83;61.86;100013.47;4491080;31;34752;-84
2024/03/16 07:31:07;;;;;;;2.40;2.28;;;;;;;12.71;62.97;100006.94;4484706;31;33807;-84
2024/03/16 07:33:35;;;;;;;3.17;2.62;;;;;;;12.71;62.69;100003.44;4462629;31;33687;-84
2024/03/16 07:36:04;;;;;;;2.55;2.40;;;;;;;12.77;62.43;100009.31;4484608;31;33956;-85
2024/03/16 07:38:32;;;;;;;3.03;2.72;;;;;;;12.86;62.07;100007.97;4465240;31;34978;-84
2024/03/16 07:40:59;;;;;;;3.33;2.97;;;;;;;13.01;61.42;100007.25;4481782;31;33174;-83
2024/03/16 07:43:27;;;;;;;4.95;2.83;;;;;;;12.90;61.51;100014.84;4481089;31;34152;-83
2024/03/16 07:45:55;;;;;;;3.10;2.90;;;;;;;13.17;61.10;100019.72;4488612;31;34332;-83
2024/03/16 07:48:22;;;;;;;5.40;3.95;;;;;;;13.10;60.32;100016.50;4467456;31;34110;-82
2024/03/16 07:50:58;;;;;;;3.87;2.65;;;;;;;13.24;60.20;100018.47;4471388;31;32933;-83
2024/03/16 07:53:25;;;;;;;3.28;3.08;;;;;;;13.32;59.70;100017.16;4485351;31;33795;-81
2024/03/16 07:55:59;;;;;;;1.60;1.50;;;;;;;13.29;60.09;100014.69;4478660;31;33899;-82
2024/03/16 07:58:27;;;;;;;4.53;2.42;;;;;;;13.30;60.20;100013.75;4483728;31;33887;-82
2024/03/16 08:00:55;;;;;;;2.12;1.80;;;;;;;13.48;59.66;100013.69;4470950;31;33840;-81
2024/03/16 08:03:23;;;;;;;1.80;1.70;;;;;;;13.41;59.58;100015.84;4465891;31;32205;-81
2024/03/16 08:05:50;;;;;;;6.20;4.07;;;;;;;13.41;59.34;100013.19;4483275;31;33800;-81
2024/03/16 08:08:19;;;;;;;2.50;2.30;;;;;;;13.37;59.83;100008.97;4467377;31;33081;-81
2024/03/16 08:10:48;;;;;;;4.05;1.80;;;;;;;13.58;59.92;100012.31;4477651;31;33006;-81
2024/03/16 08:13:16;;;;;;;4.00;1.67;;;;;;;13.46;60.57;100018.25;4482364;31;34151;-81
2024/03/16 08:15:43;;;;;;;4.53;3.30;;;;;;;13.12;61.81;100013.78;4478715;31;33941;-81
2024/03/16 08:18:12;;;;;;;3.50;3.25;;;;;;;13.33;61.42;100008.25;4460328;31;33350;-81
2024/03/16 08:20:39;;;;;;;3.35;2.97;;;;;;;13.56;60.44;100008.84;4469788;31;34014;-81
2024/03/16 08:23:07;;;;;;;4.35;3.83;;;;;;;13.66;60.63;100006.56;4471158;31;32822;-81
2024/03/16 08:25:35;;;;;;;4.05;2.35;;;;;;;13.72;60.52;100008.91;4470806;31;34246;-81
2024/03/16 08:28:03;;;;;;;7.03;3.12;;;;;;;13.81;60.94;100004.00;4482142;31;33740;-81
2024/03/16 08:30:30;;;;;;;4.80;2.83;;;;;;;13.73;61.93;100010.63;4471956;31;33080;-81
2024/03/16 08:32:58;;;;;;;3.75;2.72;;;;;;;14.00;60.27;100008.28;4458886;31;31928;-81
2024/03/16 08:35:26;;;;;;;5.00;4.55;;;;;;;14.08;60.11;99996.28;4466694;31;34029;-81
2024/03/16 08:37:54;;;;;;;3.20;3.00;;;;;;;14.33;59.61;100000.25;4485119;31;32619;-81
2024/03/16 08:40:22;;;;;;;3.58;3.28;;;;;;;14.64;57.42;99998.56;4468321;31;32297;-81
2024/03/16 08:42:51;;;;;;;5.75;5.25;;;;;;;14.46;58.52;100003.94;4471209;31;32807;-81
2024/03/16 08:45:19;;;;;;;2.00;1.70;;;;;;;14.58;57.80;100005.09;4466077;31;33041;-81
2024/03/16 08:47:47;;;;;;;3.97;3.60;;;;;;;14.25;58.66;99998.03;4487795;31;33945;-81
2024/03/16 08:50:15;;;;;;;3.35;2.67;;;;;;;14.66;57.94;100002.81;4486288;31;34569;-81
2024/03/16 08:52:43;;;;;;;2.75;2.50;;;;;;;14.64;58.12;100003.88;4486594;31;32263;-81
2024/03/16 08:55:13;;;;;;;2.62;2.37;;;;;;;14.80;57.38;99996.72;4471865;31;33974;-81
2024/03/16 08:57:44;;;;;;;2.70;2.50;;;;;;;14.79;58.26;99997.66;4473867;31;33937;-81
2024/03/16 09:00:15;;;;;;;1.87;1.75;;;;;;;14.79;58.36;100003.84;4471054;31;31735;-81
2024/03/16 09:02:43;;;;;;;1.65;1.55;;;;;;;14.84;58.62;100006.22;4470755;31;32656;-81
2024/03/16 09:05:11;;;;;;;3.72;2.87;;;;;;;14.85;58.67;100002.63;4471584;31;33905;-82
2024/03/16 09:07:39;;;;;;;12.73;2.12;;;;;;;15.50;56.55;99997.84;4468196;31;33735;-82
2024/03/16 09:10:08;;;;;;;2.45;1.98;;;;;;;15.76;55.09;100003.41;4468287;31;33454;-81
2024/03/16 09:12:36;;;;;;;2.72;2.58;;;;;;;15.74;55.37;100006.16;4476764;31;32479;-81
2024/03/16 09:15:08;;;;;;;7.12;3.70;;;;;;;15.21;57.86;99996.09;4467178;31;34159;-81
2024/03/16 09:17:36;;;;;;;;;;;;;;;15.23;57.53;100002.16;4476958;31;34366;-82
2024/03/16 09:20:09;;;;;;;3.80;3.40;;;;;;;15.22;57.48;100011.94;4486786;31;33868;-81
2024/03/16 09:22:37;;;;;;;3.67;3.12;;;;;;;15.00;58.26;100012.38;4470231;31;32995;-82
2024/03/16 09:25:05;;;;;;;7.57;3.90;;;;;;;15.06;58.24;100006.69;4467782;31;33383;-81
2024/03/16 09:27:35;;;;;;;5.72;4.22;;;;;;;15.52;57.22;100008.41;4471335;31;34371;-82
2024/03/16 09:30:11;;;;;;;3.83;3.28;;;;;;;15.40;56.59;100007.34;4473846;31;32814;-81
2024/03/16 09:32:40;;;;;;;3.67;2.30;;;;;;;15.60;55.98;100012.31;4479271;31;33396;-82
2024/03/16 09:35:10;;;;;;;7.95;4.30;;;;;;;15.48;57.12;100007.75;4487475;31;33552;-81
2024/03/16 09:37:38;;;;;;;2.97;2.53;;;;;;;15.44;57.46;100011.53;4471900;31;33978;-82
2024/03/16 09:40:13;;;;;;;2.87;2.58;;;;;;;15.22;57.56;100011.09;4470134;31;33602;-82
2024/03/16 09:42:41;;;;;;;4.03;2.72;;;;;;;15.51;57.51;100012.84;4470924;31;33261;-82
2024/03/16 09:45:19;;;;;;;2.47;2.22;;;;;;;15.57;56.48;100012.50;4484310;31;33789;-82
2024/03/16 09:47:49;;;;;;;8.90;4.45;;;;;;;15.68;55.98;100008.38;4468761;31;32866;-81
2024/03/16 09:50:21;;;;;;;4.90;3.17;;;;;;;15.72;56.68;100010.75;4473696;31;35295;-81
2024/03/16 09:52:49;;;;;;;6.10;3.78;;;;;;;15.82;56.79;100011.03;4474515;31;33390;-81
2024/03/16 09:55:16;;;;;;;6.70;2.35;;;;;;;15.80;56.55;100007.59;4452854;31;33448;-81
2024/03/16 09:57:43;;;;;;;3.65;3.00;;;;;;;15.74;56.01;100013.31;4466614;31;33127;-81
2024/03/16 10:00:10;;;;;;;3.25;2.45;;;;;;;15.51;57.48;100012.84;4466640;31;32430;-81
2024/03/16 10:02:38;;;;;;;4.00;3.12;;;;;;;15.73;56.55;100011.59;4485680;31;33857;-82
2024/03/16 10:05:11;;;;;;;5.28;1.92;;;;;;;15.94;54.71;100004.06;4485268;31;34007;-82
2024/03/16 10:07:38;;;;;;;6.70;5.60;;;;;;;15.85;55.79;100018.81;4477021;31;33592;-82
2024/03/16 10:10:10;;;;;;;9.57;3.15;;;;;;;16.22;55.50;100019.16;4444829;31;34407;-81
2024/03/16 10:12:38;;;;;;;3.80;3.40;;;;;;;16.40;54.58;100015.34;4470179;31;33525;-81
2024/03/16 10:15:09;;;;;;;7.05;4.22;;;;;;;15.64;56.09;100022.81;4462802;31;32951;-81
2024/03/16 10:17:39;;;;;;;17.10;3.57;;;;;;;15.90;54.84;100024.69;4481159;31;34693;-81
2024/03/16 10:20:15;;;;;;;2.65;2.45;;;;;;;15.95;55.06;100024.41;4469492;31;32890;-82
2024/03/16 10:22:44;;;;;;;3.22;2.97;;;;;;;16.03;54.67;100024.81;4461132;31;33469;-81
2024/03/16 10:25:11;;;;;;;2.28;2.10;;;;;;;16.11;54.33;100023.37;4471005;31;33700;-81
2024/03/16 10:27:39;;;;;;;2.20;2.05;;;;;;;16.42;52.74;100020.56;4468617;31;33493;-81
2024/03/16 10:30:13;;;;;;;4.72;3.25;;;;;;;16.65;52.94;100023.44;4457497;31;33684;-81
2024/03/16 10:32:44;;;;;;;2.53;2.33;;;;;;;16.77;52.04;100019.16;4467519;31;32000;-81
2024/03/16 10:35:15;;;;;;;4.25;3.85;;;;;;;17.01;52.78;100032.69;4458876;31;33725;-81
2024/03/16 10:37:42;;;;;;;5.18;4.00;;;;;;;16.87;51.96;100028.25;4471669;31;32867;-81
2024/03/16 10:40:13;;;;;;;6.57;3.03;;;;;;;17.03;52.15;100022.75;4462169;31;33366;-80
2024/03/16 10:42:41;;;;;;;;;;;;;;;17.20;51.79;100024.31;4480219;31;33431;-81
2024/03/16 10:45:13;;;;;;;7.22;2.53;;;;;;;17.66;50.36;100016.69;4457923;31;33096;-81
2024/03/16 10:47:42;;;;;;;5.72;1.85;;;;;;;17.59;51.36;100022.53;4471150;31;34699;-81
2024/03/16 10:50:12;;;;;;;3.83;3.05;;;;;;;17.72;50.40;100022.53;4472195;31;32535;-81
2024/03/16 10:52:41;;;;;;;3.62;2.53;;;;;;;17.86;50.80;100027.81;4457796;31;32205;-81
2024/03/16 10:55:10;;;;;;;3.00;2.58;;;;;;;17.45;51.73;100017.28;4478146;31;34222;-81
2024/03/16 10:57:37;;;;;;;7.12;3.33;;;;;;;17.71;51.17;100015.47;4478851;31;32547;-81
2024/03/16 11:00:15;;;;;;;15.60;2.83;;;;;;;17.69;50.66;100009.41;4456628;31;33513;-81
2024/03/16 11:02:59;;;;;;;4.18;2.37;;;;;;;18.08;50.72;100008.41;4449525;31;33139;-81
2024/03/16 11:05:35;;;;;;;4.70;2.85;;;;;;;18.07;50.72;100002.22;4470849;31;32740;-81
2024/03/16 11:08:08;;;;;;;2.75;2.25;;;;;;;17.86;50.38;100011.78;4469388;31;34632;-81
2024/03/16 11:10:39;;;;;;;4.30;3.90;;;;;;;18.08;50.58;100003.94;4482841;31;34373;-81
2024/03/16 11:13:13;;;;;;;12.07;3.80;;;;;;;17.62;50.73;100007.16;4464801;31;31772;-81
2024/03/16 11:15:41;;;;;;;5.55;2.87;;;;;;;18.15;50.63;100007.03;4471992;31;34615;-81
2024/03/16 11:18:17;;;;;;;8.27;3.55;;;;;;;18.06;50.91;100008.53;4488826;31;33562;-81
2024/03/16 11:20:44;;;;;;;6.12;4.20;;;;;;;18.31;50.56;100002.28;4487472;31;32792;-81
2024/03/16 11:23:24;;;;;;;2.37;2.15;;;;;;;17.90;50.62;100007.94;4468425;31;33881;-81
2024/03/16 11:25:51;;;;;;;3.15;1.80;;;;;;;18.10;51.16;99999.34;4467744;31;32679;-81
2024/03/16 11:28:18;;;;;;;4.53;2.85;;;;;;;18.39;49.55;100005.25;4469136;31;34265;-81
2024/03/16 11:30:48;;;;;;;3.00;2.70;;;;;;;17.93;50.13;100002.34;4472325;31;33467;-81
2024/03/16 11:33:22;;;;;;;4.72;2.60;;;;;;;18.24;49.10;100000.19;4483903;31;33392;-80
2024/03/16 11:35:52;;;;;;;2.58;2.37;;;;;;;17.77;50.38;100007.09;4468659;31;34203;-80
2024/03/16 11:38:21;;;;;;;4.72;2.75;;;;;;;17.64;50.81;100007.03;4468873;31;33345;-80